EGGDLPMA

Guest
Details From EGGD - Bristol Lulsgate
To LPMA - Madeira
Flight Number -
Tags Generated
Created
Modified
Stats Distance 1,281 nm / 2,373 km
Max Altitude 0 ft / 0 m
Waypoints 3
Social Downloads 1
Likes 0
Share VATSIM

Download

Looking for another format? Having issues loading an existing format? Contact us
Advertisement - Login to hide

Notes

Generated

Route

EGGD MAD LPMA

ID Type Via Altitude Latitude Longitude Leg Dist Tot Dist Heading (true) Name
O EGGD APT - 0 ft / 0 m 51.38211˚ -2.73350˚ - 0 nm - -
MAD NDB - 0 ft / 0 m 32.74813˚ -16.70651˚ 1275 nm 1275 nm 214° / 205° MADEIRA NDB
O LPMA APT - 0 ft / 0 m 32.68900˚ -16.78409˚ 5 nm 1281 nm 228° / 228° -

Altitude Profile

Advertisement - Login to hide

Weather


0- 5 10 15 20 25 30 35+ Temperature / ° C

Clouds and Precipitation
Forecast for 2017-12-17 12:00 UTC. Updated an hour ago

Ground ~20,000 ft ~40,000 ft Winds

EGGD

Details ICAO EGGD (BRS)
Name Bristol International
Region United Kingdom
Timezone Europe/London (UTC+0.0)
Stats Elevation 622 ft / 190 m (AMSL)
Location 51.382658° -2.718918°
Runways 1
Magnetic Variation 1.349° W

METAR

EGGD 170820Z AUTO 21005KT 9999 BKN008 05/05 Q1023

Decode

TAF

TAF AMD EGGD 170655Z 1706/1806 26008KT 9999 SCT025 TEMPO 1706/1708 6000 BKN014 PROB30 TEMPO 1706/1708 3000 BR BECMG 1708/1711 8000 -RA BKN005 TEMPO 1710/1714 3000 RA BKN002 BECMG 1714/1717 2000 -RADZ BR BKN003 TEMPO 1714/1720 0300 FG DZ OVC001 BECMG 1720/1723 32010KT 9999 NSW FEW025 BECMG 1800/1803 VRB03KT

Decode

Departure Runways

ID Width Length Bearing (true) Bearing (mag) Surface Threshold Offset Overrun Length
09 148 ft / 45 m 6,655 ft / 2,029 m 86.42° 87.77° Asphalt 0 ft / 0 m 0 ft / 0 m
27 148 ft / 45 m 6,655 ft / 2,029 m 266.44° 267.79° Asphalt 499 ft / 152 m 0 ft / 0 m

LPMA

Details ICAO LPMA (FNC)
Name Madeira
Region Portugal
Timezone Atlantic/Madeira (UTC+0.0)
Stats Elevation 192 ft / 59 m (AMSL)
Location 32.697704° -16.774449°
Runways 1
Magnetic Variation 4.981° W

METAR

LPMA 170830Z 02014KT 340V050 9999 SCT015 SCT030 17/08 Q1028

Decode

TAF

TAF LPMA 170500Z 1706/1806 02015KT 9999 SCT015 TEMPO 1706/1806 BKN015 PROB40 TEMPO 1706/1721 02018G30KT

Decode

Destination Runways

ID Width Length Bearing (true) Bearing (mag) Surface Threshold Offset Overrun Length
05 141 ft / 43 m 8,683 ft / 2,647 m 42.98° 47.96° Asphalt 472 ft / 144 m 0 ft / 0 m
23 141 ft / 43 m 8,683 ft / 2,647 m 222.99° 227.97° Asphalt 466 ft / 142 m 0 ft / 0 m

Popular Alternatives